Time;durP1;ratioP1;P1;durP2;ratioP2;P2;SDS_P1;SDS_P2;PMS_P1;PMS_P2;Temp;Humidity;BMP_temperature;BMP_pressure;BME280_temperature;BME280_humidity;BME280_pressure;Samples;Min_cycle;Max_cycle;Signal;HPM_P1;HPM_P2
2022/09/03 00:00:52;;;;;;;4.43;0.70;;;15.90;58.60;;;;;;4134162;28;20418;-86
2022/09/03 00:03:23;;;;;;;3.03;0.43;;;15.80;58.60;;;;;;4138814;28;20100;-86
2022/09/03 00:05:33;;;;;;;0.98;0.52;;;15.80;58.80;;;;;;4136094;28;20095;-86
2022/09/03 00:07:55;;;;;;;1.48;0.45;;;15.80;58.50;;;;;;4134839;28;20030;-86
2022/09/03 00:10:01;;;;;;;2.63;0.70;;;15.80;58.60;;;;;;4130353;28;20124;-86
2022/09/03 00:12:12;;;;;;;2.33;0.57;;;15.80;58.50;;;;;;4131229;28;20070;-86
2022/09/03 00:14:25;;;;;;;3.22;0.70;;;15.80;58.40;;;;;;4130559;28;20108;-86
2022/09/03 00:16:48;;;;;;;7.78;1.00;;;15.80;58.40;;;;;;4133375;28;20025;-86
2022/09/03 00:18:59;;;;;;;0.98;0.38;;;15.80;58.30;;;;;;4135026;28;20194;-86
2022/09/03 00:21:14;;;;;;;1.10;0.52;;;15.80;58.30;;;;;;4120248;28;20041;-87
2022/09/03 00:23:20;;;;;;;1.67;0.82;;;15.90;58.30;;;;;;4135504;28;20032;-87
2022/09/03 00:25:43;;;;;;;2.80;0.70;;;15.90;58.20;;;;;;4132741;28;20058;-86
2022/09/03 00:27:49;;;;;;;1.65;0.88;;;15.80;58.30;;;;;;4135846;28;20332;-86
2022/09/03 00:30:15;;;;;;;2.08;0.60;;;15.90;58.20;;;;;;4148880;28;20040;-86
2022/09/03 00:32:46;;;;;;;2.13;0.50;;;15.90;58.20;;;;;;4123552;28;20091;-87
2022/09/03 00:34:52;;;;;;;1.02;0.40;;;15.90;58.20;;;;;;4138587;28;20082;-87
2022/09/03 00:36:53;;;;;;;3.15;0.85;;;15.90;58.00;;;;;;4130454;28;20026;-87
2022/09/03 00:38:56;;;;;;;3.90;0.80;;;15.90;58.20;;;;;;4129919;28;20030;-86
2022/09/03 00:41:23;;;;;;;3.35;0.70;;;15.90;58.20;;;;;;4137004;28;20120;-88
2022/09/03 00:43:45;;;;;;;1.67;0.60;;;15.90;58.30;;;;;;4135284;28;20034;-87
2022/09/03 00:46:04;;;;;;;2.63;0.50;;;15.90;58.40;;;;;;4132724;28;20022;-87
2022/09/03 00:48:22;;;;;;;2.47;0.52;;;15.90;58.50;;;;;;4133835;28;20038;-87
2022/09/03 00:50:59;;;;;;;2.80;0.50;;;15.90;58.50;;;;;;4133189;28;20036;-87
2022/09/03 00:53:03;;;;;;;2.45;0.50;;;15.90;58.50;;;;;;4118366;28;20042;-87
2022/09/03 00:55:12;;;;;;;;;;;15.90;58.60;;;;;;4134685;28;20057;-88
2022/09/03 00:57:24;;;;;;;1.98;0.50;;;15.90;58.40;;;;;;4129626;28;19909;-87
2022/09/03 00:59:57;;;;;;;3.00;0.70;;;15.90;58.30;;;;;;4130067;28;20090;-87
2022/09/03 01:02:38;;;;;;;1.40;0.50;;;15.90;58.60;;;;;;4134412;28;20102;-88
2022/09/03 01:04:59;;;;;;;4.18;0.80;;;15.90;58.50;;;;;;4102520;28;20550;-87
2022/09/03 01:07:28;;;;;;;5.45;0.75;;;15.90;58.70;;;;;;4125580;28;20302;-86
2022/09/03 01:09:57;;;;;;;2.00;0.57;;;15.90;58.80;;;;;;4128958;28;20030;-86
2022/09/03 01:12:16;;;;;;;2.47;0.60;;;15.90;58.90;;;;;;4103070;28;20038;-87
2022/09/03 01:14:40;;;;;;;2.67;0.30;;;15.90;58.90;;;;;;4131896;28;20045;-87
2022/09/03 01:16:51;;;;;;;4.20;0.80;;;15.90;59.20;;;;;;4130350;28;20065;-86
2022/09/03 01:19:05;;;;;;;1.45;0.50;;;15.90;59.10;;;;;;4134191;28;20029;-87
2022/09/03 01:21:25;;;;;;;4.20;0.70;;;15.80;59.20;;;;;;4132866;28;20112;-86
2022/09/03 01:24:08;;;;;;;2.05;0.60;;;15.80;59.10;;;;;;4132105;28;20022;-86
2022/09/03 01:26:42;;;;;;;3.20;0.63;;;15.80;59.20;;;;;;4119275;28;20172;-86
2022/09/03 01:29:24;;;;;;;5.20;0.70;;;15.80;59.30;;;;;;4134524;28;20176;-86
2022/09/03 01:31:35;;;;;;;1.70;0.55;;;15.80;59.60;;;;;;4111053;28;20434;-86
2022/09/03 01:34:00;;;;;;;4.43;0.60;;;15.70;59.40;;;;;;4127146;28;20406;-86
2022/09/03 01:36:22;;;;;;;2.22;0.60;;;15.70;59.70;;;;;;4129960;28;20030;-85
2022/09/03 01:38:31;;;;;;;2.17;0.63;;;15.70;59.90;;;;;;4130024;28;20379;-86
2022/09/03 01:40:41;;;;;;;1.55;0.47;;;15.70;59.80;;;;;;4128006;28;20071;-86
2022/09/03 01:43:16;;;;;;;6.72;0.70;;;15.70;59.80;;;;;;4132426;28;20286;-86
2022/09/03 01:45:28;;;;;;;4.32;0.70;;;15.60;60.20;;;;;;4133338;28;20042;-86
2022/09/03 01:47:48;;;;;;;10.13;0.70;;;15.60;60.10;;;;;;4136193;28;20492;-86
2022/09/03 01:50:05;;;;;;;3.95;0.75;;;15.60;60.70;;;;;;4144960;28;20077;-86
2022/09/03 01:52:14;;;;;;;5.22;0.60;;;15.60;61.00;;;;;;4143150;28;20102;-86
2022/09/03 01:54:37;;;;;;;2.55;0.68;;;15.60;61.80;;;;;;4150886;28;20065;-86
2022/09/03 01:57:08;;;;;;;2.63;0.50;;;15.50;61.60;;;;;;4128646;28;20049;-85
2022/09/03 01:59:22;;;;;;;1.85;0.60;;;15.50;61.70;;;;;;4127693;28;20026;-87
2022/09/03 02:01:45;;;;;;;;;;;15.50;62.10;;;;;;4133078;28;20029;-87
2022/09/03 02:03:47;;;;;;;1.63;0.70;;;15.60;61.70;;;;;;4133324;28;19941;-86
2022/09/03 02:05:51;;;;;;;7.00;0.80;;;15.60;61.60;;;;;;4132561;28;20097;-86
2022/09/03 02:07:59;;;;;;;3.20;0.60;;;15.50;62.20;;;;;;4141158;28;20041;-85
2022/09/03 02:10:04;;;;;;;2.17;0.60;;;15.50;63.00;;;;;;4131633;28;20417;-86
2022/09/03 02:12:12;;;;;;;4.38;0.73;;;15.50;62.20;;;;;;4138947;28;20029;-87
2022/09/03 02:14:13;;;;;;;3.20;0.60;;;15.40;62.30;;;;;;4135393;28;20030;-87
2022/09/03 02:16:21;;;;;;;4.30;0.60;;;15.50;62.50;;;;;;4118107;28;20084;-87
2022/09/03 02:18:25;;;;;;;3.03;0.45;;;15.50;62.50;;;;;;4134400;28;20034;-87
2022/09/03 02:20:28;;;;;;;1.52;0.70;;;15.40;62.50;;;;;;4132515;28;20049;-87
2022/09/03 02:22:28;;;;;;;11.30;0.90;;;15.40;63.00;;;;;;4133988;28;20437;-86
2022/09/03 02:24:29;;;;;;;2.40;0.70;;;15.40;63.20;;;;;;4137747;28;20022;-86
2022/09/03 02:26:31;;;;;;;3.42;0.65;;;15.40;63.00;;;;;;4131120;28;20037;-87
2022/09/03 02:28:32;;;;;;;4.18;1.05;;;15.40;63.10;;;;;;4137451;28;20036;-87
2022/09/03 02:30:32;;;;;;;1.17;0.57;;;15.40;63.00;;;;;;4131163;28;20528;-87
2022/09/03 02:32:33;;;;;;;1.55;0.70;;;15.40;63.40;;;;;;4131276;28;20026;-86
2022/09/03 02:34:34;;;;;;;5.00;0.82;;;15.40;63.40;;;;;;4130673;28;20015;-86
2022/09/03 02:36:44;;;;;;;4.32;0.60;;;15.40;63.30;;;;;;4130742;28;20140;-86
2022/09/03 02:38:46;;;;;;;3.42;0.90;;;15.40;63.70;;;;;;4135161;28;20026;-88
2022/09/03 02:40:47;;;;;;;1.95;0.40;;;15.40;63.70;;;;;;4131352;28;20468;-86
2022/09/03 02:42:48;;;;;;;7.65;0.63;;;15.40;63.50;;;;;;4133263;28;20034;-87
2022/09/03 02:44:57;;;;;;;3.60;0.50;;;15.40;63.60;;;;;;4131681;28;20030;-86
2022/09/03 02:47:06;;;;;;;8.27;0.70;;;15.40;63.70;;;;;;4127304;28;20030;-87
2022/09/03 02:49:07;;;;;;;3.08;0.68;;;15.40;64.00;;;;;;4132759;28;20496;-87
2022/09/03 02:51:08;;;;;;;2.58;0.60;;;15.30;64.10;;;;;;4128887;28;20124;-86
2022/09/03 02:53:09;;;;;;;2.05;0.70;;;15.40;64.10;;;;;;4136437;28;20029;-87
2022/09/03 02:55:10;;;;;;;2.28;0.57;;;15.30;63.90;;;;;;4136779;28;20026;-86
2022/09/03 02:57:13;;;;;;;0.98;0.40;;;15.30;63.90;;;;;;4133560;28;20522;-87
2022/09/03 02:59:15;;;;;;;4.82;0.60;;;15.30;64.00;;;;;;4141574;28;20124;-87
2022/09/03 03:01:16;;;;;;;2.88;0.60;;;15.30;63.90;;;;;;4134230;28;20029;-87
2022/09/03 03:03:17;;;;;;;2.22;0.60;;;15.30;64.10;;;;;;4121041;28;20035;-86
2022/09/03 03:05:25;;;;;;;8.55;0.70;;;15.40;64.10;;;;;;4135123;28;20041;-87
2022/09/03 03:07:29;;;;;;;3.42;0.80;;;15.30;64.10;;;;;;4134711;28;20026;-87
2022/09/03 03:09:30;;;;;;;2.17;0.82;;;15.30;64.10;;;;;;4133778;28;20045;-87
2022/09/03 03:11:31;;;;;;;2.67;0.82;;;15.40;64.20;;;;;;4134198;28;20030;-87
2022/09/03 03:13:32;;;;;;;3.30;0.50;;;15.40;64.20;;;;;;4137907;28;20047;-86
2022/09/03 03:15:33;;;;;;;2.83;0.50;;;15.40;64.50;;;;;;4148114;28;20124;-86
2022/09/03 03:17:33;;;;;;;2.47;0.70;;;15.40;64.50;;;;;;4137444;28;20030;-87
2022/09/03 03:19:34;;;;;;;1.70;0.60;;;15.40;64.50;;;;;;4134328;28;20052;-86
2022/09/03 03:21:35;;;;;;;5.95;0.60;;;15.40;64.70;;;;;;4137421;28;20030;-87
2022/09/03 03:23:37;;;;;;;4.85;0.70;;;15.40;65.00;;;;;;4137498;28;20030;-87
2022/09/03 03:25:38;;;;;;;3.78;0.70;;;15.40;64.80;;;;;;4137543;28;20033;-86
2022/09/03 03:27:40;;;;;;;0.77;0.45;;;15.40;64.90;;;;;;4137255;28;20029;-86
2022/09/03 03:29:41;;;;;;;1.95;0.60;;;15.40;64.80;;;;;;4131758;28;20445;-87
2022/09/03 03:31:42;;;;;;;3.72;0.73;;;15.50;64.70;;;;;;4137080;28;20061;-86
2022/09/03 03:33:43;;;;;;;2.67;0.70;;;15.50;64.70;;;;;;4131940;28;20084;-86
2022/09/03 03:35:44;;;;;;;2.67;0.68;;;15.50;65.50;;;;;;4133050;28;20714;-86
2022/09/03 03:37:44;;;;;;;4.90;0.70;;;15.50;65.10;;;;;;4135755;28;20026;-87
2022/09/03 03:39:45;;;;;;;4.53;0.70;;;15.50;64.80;;;;;;4134761;28;20099;-86
2022/09/03 03:41:46;;;;;;;7.90;0.80;;;15.60;64.70;;;;;;4140094;28;20502;-87
2022/09/03 03:43:51;;;;;;;1.98;0.60;;;15.60;64.50;;;;;;4136026;28;20517;-86
2022/09/03 03:45:58;;;;;;;5.75;0.70;;;15.60;64.40;;;;;;4135621;28;20026;-85
2022/09/03 03:47:58;;;;;;;5.22;0.60;;;15.70;64.30;;;;;;4143136;28;20029;-86
2022/09/03 03:49:59;;;;;;;2.13;0.60;;;15.70;64.10;;;;;;4149105;28;20085;-87
2022/09/03 03:52:02;;;;;;;4.35;0.70;;;15.70;64.10;;;;;;4134865;28;20105;-86
2022/09/03 03:54:03;;;;;;;1.77;0.63;;;15.70;64.10;;;;;;4132605;28;20030;-86
2022/09/03 03:56:09;;;;;;;2.72;0.65;;;15.80;64.00;;;;;;4133996;28;20022;-87
2022/09/03 03:58:10;;;;;;;4.55;0.82;;;15.80;64.00;;;;;;4133439;28;20215;-86
2022/09/03 04:00:11;;;;;;;2.45;0.80;;;15.80;64.10;;;;;;4134760;28;20041;-87
2022/09/03 04:02:13;;;;;;;3.95;0.50;;;15.80;64.00;;;;;;4137765;28;20037;-86
2022/09/03 04:04:13;;;;;;;1.02;0.60;;;15.80;63.90;;;;;;4136630;28;20722;-85
2022/09/03 04:06:17;;;;;;;3.50;0.77;;;15.80;63.80;;;;;;4135818;28;20034;-86
2022/09/03 04:08:18;;;;;;;3.83;0.95;;;15.80;64.00;;;;;;4136184;28;20030;-86
2022/09/03 04:10:19;;;;;;;5.75;0.70;;;15.90;63.90;;;;;;4131925;28;20033;-85
2022/09/03 04:12:39;;;;;;;2.08;0.65;;;15.90;63.80;;;;;;4133868;28;20030;-86
2022/09/03 04:15:01;;;;;;;3.22;0.75;;;15.90;64.00;;;;;;4132861;28;20026;-86
2022/09/03 04:17:21;;;;;;;2.08;0.60;;;15.90;63.70;;;;;;4134632;28;20128;-86
2022/09/03 04:19:42;;;;;;;3.95;0.50;;;16.00;63.70;;;;;;4135655;28;20058;-87
2022/09/03 04:22:02;;;;;;;3.53;0.57;;;16.00;63.70;;;;;;4137636;28;20057;-86
2022/09/03 04:24:23;;;;;;;4.35;0.82;;;16.00;63.60;;;;;;4136640;28;20129;-86
2022/09/03 04:26:44;;;;;;;3.08;0.77;;;16.00;63.70;;;;;;4129763;28;20034;-86
2022/09/03 04:29:06;;;;;;;2.38;0.88;;;16.00;63.70;;;;;;4134718;28;20030;-87
2022/09/03 04:31:25;;;;;;;2.65;0.57;;;16.00;63.50;;;;;;4134580;28;21401;-87
2022/09/03 04:33:46;;;;;;;2.00;0.77;;;16.00;63.40;;;;;;4136163;28;20472;-87
2022/09/03 04:36:33;;;;;;;2.22;0.70;;;16.00;63.40;;;;;;4135695;28;20180;-87
2022/09/03 04:38:57;;;;;;;3.72;0.70;;;16.00;63.50;;;;;;4134961;28;20224;-87
2022/09/03 04:41:25;;;;;;;1.58;0.63;;;16.00;63.20;;;;;;4134581;28;20707;-86
2022/09/03 04:43:47;;;;;;;2.85;0.77;;;16.10;63.20;;;;;;4131693;28;20034;-86
2022/09/03 04:46:10;;;;;;;2.22;0.80;;;16.10;63.20;;;;;;4132744;28;20042;-86
2022/09/03 04:48:33;;;;;;;1.33;0.57;;;16.10;63.30;;;;;;4130921;28;20037;-87
2022/09/03 04:50:54;;;;;;;2.28;0.60;;;16.10;63.20;;;;;;4135745;28;21122;-86
2022/09/03 04:53:15;;;;;;;3.97;0.60;;;16.10;63.90;;;;;;4136918;28;20227;-86
2022/09/03 04:55:37;;;;;;;2.25;0.60;;;16.10;63.10;;;;;;4129558;28;20481;-85
2022/09/03 04:57:58;;;;;;;2.83;0.70;;;16.10;63.20;;;;;;4133994;28;20088;-84
2022/09/03 05:00:19;;;;;;;3.03;0.60;;;16.10;63.10;;;;;;4134604;28;20045;-87
2022/09/03 05:02:40;;;;;;;2.55;0.57;;;16.10;62.90;;;;;;4127623;28;20038;-86
2022/09/03 05:04:41;;;;;;;2.97;0.65;;;16.10;62.80;;;;;;4132744;28;20591;-87
2022/09/03 05:07:02;;;;;;;4.60;0.98;;;16.10;62.80;;;;;;4132911;28;20030;-87
2022/09/03 05:09:22;;;;;;;3.03;0.88;;;16.20;62.70;;;;;;4131408;28;20030;-85
2022/09/03 05:11:43;;;;;;;6.57;0.68;;;16.20;62.50;;;;;;4130470;28;20040;-86
2022/09/03 05:13:49;;;;;;;3.40;0.60;;;16.10;62.20;;;;;;4116829;28;20090;-86
2022/09/03 05:15:50;;;;;;;1.33;0.40;;;16.20;62.10;;;;;;4131104;28;20129;-86
2022/09/03 05:17:55;;;;;;;2.20;0.40;;;16.20;61.90;;;;;;4115675;28;20058;-86
2022/09/03 05:19:56;;;;;;;4.72;0.60;;;16.20;61.80;;;;;;4132808;28;20121;-85
2022/09/03 05:21:57;;;;;;;2.30;0.40;;;16.20;61.60;;;;;;4131789;28;20109;-86
2022/09/03 05:24:00;;;;;;;2.17;0.65;;;16.20;61.50;;;;;;4114194;28;20588;-86
2022/09/03 05:26:07;;;;;;;4.35;0.73;;;16.20;61.30;;;;;;4137315;28;20030;-86
2022/09/03 05:28:08;;;;;;;8.48;0.63;;;16.20;61.10;;;;;;4138430;28;20033;-86
2022/09/03 05:30:09;;;;;;;2.65;0.40;;;16.20;61.00;;;;;;4132024;28;20058;-86
2022/09/03 05:32:15;;;;;;;1.92;0.50;;;16.30;60.90;;;;;;4133270;28;20026;-87
2022/09/03 05:34:15;;;;;;;1.83;0.50;;;16.30;60.80;;;;;;4134883;28;20025;-86
2022/09/03 05:36:21;;;;;;;1.80;0.70;;;16.30;60.70;;;;;;4128001;28;20035;-87
2022/09/03 05:38:21;;;;;;;1.52;0.70;;;16.30;60.50;;;;;;4130353;28;20034;-87
2022/09/03 05:40:22;;;;;;;2.00;0.45;;;16.30;60.50;;;;;;4132992;28;20096;-87
2022/09/03 05:42:23;;;;;;;2.47;0.68;;;16.30;60.40;;;;;;4134543;28;20041;-87
2022/09/03 05:44:24;;;;;;;4.30;0.80;;;16.30;60.40;;;;;;4132607;28;20044;-87
2022/09/03 05:46:30;;;;;;;1.95;0.57;;;16.30;60.30;;;;;;4130831;28;20289;-87
2022/09/03 05:48:33;;;;;;;4.30;0.60;;;16.40;60.30;;;;;;4132068;28;20045;-87
2022/09/03 05:50:34;;;;;;;1.20;0.50;;;16.40;60.20;;;;;;4132986;28;20030;-87
2022/09/03 05:52:35;;;;;;;1.38;0.50;;;16.40;60.10;;;;;;4134967;28;20103;-87
2022/09/03 05:54:35;;;;;;;3.97;0.70;;;16.40;60.10;;;;;;4132773;28;20039;-87
2022/09/03 05:56:38;;;;;;;1.90;0.57;;;16.40;60.00;;;;;;4131909;28;20147;-86
2022/09/03 05:58:43;;;;;;;2.25;0.60;;;16.40;60.00;;;;;;4130225;28;20026;-86
2022/09/03 06:00:44;;;;;;;3.42;0.65;;;16.50;60.00;;;;;;4129317;28;20033;-87
2022/09/03 06:02:51;;;;;;;1.80;0.60;;;16.50;59.90;;;;;;4132410;28;20022;-86
2022/09/03 06:04:53;;;;;;;3.38;0.65;;;16.50;59.90;;;;;;4130259;28;20157;-86
2022/09/03 06:06:55;;;;;;;2.55;0.50;;;16.50;59.80;;;;;;4131425;28;20404;-87
2022/09/03 06:08:58;;;;;;;2.28;0.43;;;16.50;59.80;;;;;;4129299;28;20034;-87
2022/09/03 06:10:59;;;;;;;2.75;0.40;;;16.50;59.80;;;;;;4130897;28;20050;-87
2022/09/03 06:13:02;;;;;;;6.07;0.80;;;16.50;59.70;;;;;;4133187;28;20572;-87
2022/09/03 06:15:04;;;;;;;1.58;0.60;;;16.60;59.70;;;;;;4133603;28;20072;-86
2022/09/03 06:17:05;;;;;;;2.13;0.82;;;16.60;59.70;;;;;;4132056;28;20409;-86
2022/09/03 06:19:08;;;;;;;4.13;0.55;;;16.60;59.70;;;;;;4117103;28;20381;-88
2022/09/03 06:21:09;;;;;;;4.35;0.93;;;16.60;59.70;;;;;;4136898;28;20028;-87
2022/09/03 06:23:09;;;;;;;9.15;0.60;;;16.60;59.70;;;;;;4129239;28;20104;-87
2022/09/03 06:25:10;;;;;;;2.90;0.70;;;16.70;59.70;;;;;;4126864;28;20031;-85
2022/09/03 06:27:11;;;;;;;2.65;0.50;;;16.70;59.60;;;;;;4125543;28;20044;-86
2022/09/03 06:29:12;;;;;;;3.63;0.50;;;16.70;59.50;;;;;;4128207;28;20018;-86
2022/09/03 06:31:15;;;;;;;2.95;0.60;;;16.70;59.50;;;;;;4130912;28;20045;-85
2022/09/03 06:33:17;;;;;;;3.33;0.82;;;16.70;59.40;;;;;;4127827;28;20363;-86
2022/09/03 06:35:18;;;;;;;1.27;0.57;;;16.80;59.30;;;;;;4134332;28;20026;-86
2022/09/03 06:37:18;;;;;;;2.78;0.50;;;16.80;59.00;;;;;;4136045;28;20052;-85
2022/09/03 06:39:19;;;;;;;5.38;0.77;;;16.80;59.00;;;;;;4131060;28;20022;-86
2022/09/03 06:41:25;;;;;;;2.53;0.63;;;16.90;59.00;;;;;;4131503;28;20038;-85
2022/09/03 06:43:26;;;;;;;4.70;0.70;;;16.90;58.90;;;;;;4126546;28;21068;-86
2022/09/03 06:45:27;;;;;;;3.70;0.60;;;16.90;58.80;;;;;;4140087;28;20301;-86
2022/09/03 06:47:28;;;;;;;1.75;0.65;;;16.90;58.40;;;;;;4131458;28;20030;-86
2022/09/03 06:49:30;;;;;;;6.15;0.60;;;16.90;58.50;;;;;;4136813;28;20194;-86
2022/09/03 06:51:32;;;;;;;2.63;0.60;;;17.00;58.50;;;;;;4134764;28;20111;-85
2022/09/03 06:53:35;;;;;;;1.42;0.52;;;17.10;58.20;;;;;;4134876;28;20116;-85
2022/09/03 06:55:38;;;;;;;;;;;17.10;58.10;;;;;;4122313;28;20073;-88
2022/09/03 06:57:39;;;;;;;3.88;0.77;;;17.10;58.20;;;;;;4132178;28;19956;-86
2022/09/03 06:59:40;;;;;;;1.67;0.60;;;17.20;57.90;;;;;;4132526;28;20293;-86
2022/09/03 07:01:43;;;;;;;3.45;0.70;;;17.20;57.80;;;;;;4133115;28;20393;-86
2022/09/03 07:03:45;;;;;;;2.67;0.60;;;17.20;57.60;;;;;;4128759;28;20034;-86
2022/09/03 07:05:46;;;;;;;3.30;0.80;;;17.20;58.20;;;;;;4132669;28;20037;-86
2022/09/03 07:07:47;;;;;;;4.88;0.95;;;17.30;57.50;;;;;;4129147;28;20037;-86
2022/09/03 07:09:48;;;;;;;1.52;0.45;;;17.30;57.30;;;;;;4142135;28;20026;-85
2022/09/03 07:11:48;;;;;;;8.38;1.15;;;17.40;57.20;;;;;;4125875;28;20018;-87
2022/09/03 07:13:50;;;;;;;2.33;0.50;;;17.40;57.20;;;;;;4127835;28;20030;-86
2022/09/03 07:16:02;;;;;;;1.50;0.50;;;17.40;56.50;;;;;;4132524;28;20029;-87
2022/09/03 07:18:03;;;;;;;3.17;0.65;;;17.40;56.60;;;;;;4136630;28;20075;-83
2022/09/03 07:20:04;;;;;;;4.88;0.93;;;17.50;56.50;;;;;;4131117;28;20415;-84
2022/09/03 07:22:04;;;;;;;1.08;0.57;;;17.50;57.10;;;;;;4122524;28;20042;-83
2022/09/03 07:24:05;;;;;;;2.08;0.65;;;17.50;56.10;;;;;;4129180;28;20042;-84
2022/09/03 07:26:12;;;;;;;8.75;0.80;;;17.50;55.70;;;;;;4125424;28;20444;-84
2022/09/03 07:28:12;;;;;;;2.22;0.63;;;17.60;55.80;;;;;;4141330;28;20034;-84
2022/09/03 07:30:13;;;;;;;6.55;0.77;;;17.60;55.90;;;;;;4124172;28;20508;-84
2022/09/03 07:32:14;;;;;;;1.83;0.55;;;17.60;55.70;;;;;;4128633;28;20101;-85
2022/09/03 07:34:15;;;;;;;1.08;0.50;;;17.70;55.80;;;;;;4125134;28;20042;-84
2022/09/03 07:36:16;;;;;;;3.03;1.70;;;17.70;55.50;;;;;;4129558;28;20019;-84
2022/09/03 07:38:22;;;;;;;2.72;0.50;;;17.80;56.20;;;;;;4131350;28;20041;-84
2022/09/03 07:40:22;;;;;;;3.30;0.70;;;17.80;54.50;;;;;;4127196;28;20041;-83
2022/09/03 07:42:25;;;;;;;3.28;0.70;;;17.90;54.90;;;;;;4134893;28;20524;-84
2022/09/03 07:44:27;;;;;;;1.25;0.55;;;17.90;54.60;;;;;;4135604;28;20035;-84
2022/09/03 07:46:28;;;;;;;2.33;0.70;;;18.00;54.60;;;;;;4142794;28;20077;-84
2022/09/03 07:48:28;;;;;;;2.95;0.50;;;18.00;54.40;;;;;;4144748;28;20061;-84
2022/09/03 07:50:32;;;;;;;2.38;0.50;;;18.10;53.90;;;;;;4135111;28;20026;-83
2022/09/03 07:52:33;;;;;;;4.75;0.70;;;18.10;53.90;;;;;;4140389;28;20031;-84
2022/09/03 07:54:34;;;;;;;1.50;0.50;;;18.20;53.90;;;;;;4139748;28;20032;-84
2022/09/03 07:56:36;;;;;;;2.10;0.57;;;18.20;53.70;;;;;;4135831;28;20507;-84
2022/09/03 07:58:39;;;;;;;2.88;0.70;;;18.30;53.40;;;;;;4142067;28;20169;-84
2022/09/03 08:00:39;;;;;;;3.45;0.60;;;18.30;52.60;;;;;;4146163;28;20108;-83
2022/09/03 08:02:40;;;;;;;1.52;0.70;;;18.40;52.50;;;;;;4141007;28;20045;-83
2022/09/03 08:04:42;;;;;;;1.95;0.63;;;18.40;51.90;;;;;;4136143;28;20031;-83
2022/09/03 08:06:43;;;;;;;2.17;0.50;;;18.50;52.10;;;;;;4126464;28;20034;-83
2022/09/03 08:08:46;;;;;;;0.93;0.60;;;18.50;51.40;;;;;;4129287;28;20081;-83
2022/09/03 08:10:47;;;;;;;6.93;0.77;;;18.60;51.90;;;;;;4143295;28;20022;-84
2022/09/03 08:12:48;;;;;;;0.65;0.40;;;18.60;52.00;;;;;;4136635;28;20513;-84
2022/09/03 08:14:48;;;;;;;10.45;0.73;;;18.70;51.60;;;;;;4140839;28;20044;-84
2022/09/03 08:16:49;;;;;;;0.70;0.40;;;18.70;50.90;;;;;;4137821;28;20049;-84
2022/09/03 08:18:50;;;;;;;4.15;0.47;;;18.80;50.40;;;;;;4137592;28;20076;-84
2022/09/03 08:20:51;;;;;;;2.78;0.80;;;18.90;49.80;;;;;;4133274;28;20026;-84
2022/09/03 08:22:51;;;;;;;1.25;0.40;;;18.90;49.80;;;;;;4130289;28;20087;-84
2022/09/03 08:24:53;;;;;;;2.53;0.82;;;19.00;50.10;;;;;;4138345;28;20026;-84
2022/09/03 08:26:53;;;;;;;2.70;1.13;;;19.10;50.20;;;;;;4140879;28;20544;-84
2022/09/03 08:28:54;;;;;;;1.00;0.60;;;19.10;49.80;;;;;;4126231;28;20022;-84
2022/09/03 08:30:55;;;;;;;2.00;0.70;;;19.20;50.00;;;;;;4135858;28;20076;-83
2022/09/03 08:32:56;;;;;;;2.75;0.70;;;19.20;48.90;;;;;;4132024;28;20825;-83
2022/09/03 08:34:56;;;;;;;4.55;1.05;;;19.30;49.40;;;;;;4142109;28;20049;-84
2022/09/03 08:37:00;;;;;;;5.63;0.70;;;19.30;49.40;;;;;;4138018;28;20521;-85
2022/09/03 08:39:03;;;;;;;2.25;0.73;;;19.40;48.70;;;;;;4137175;28;20105;-84
2022/09/03 08:41:36;;;;;;;7.30;1.08;;;19.40;48.20;;;;;;4140857;28;20533;-84
2022/09/03 08:44:04;;;;;;;1.10;0.63;;;19.40;47.20;;;;;;4136579;28;20041;-87
2022/09/03 08:46:05;;;;;;;3.20;0.55;;;19.40;47.90;;;;;;4096843;28;20310;-84
2022/09/03 08:48:15;;;;;;;5.97;0.90;;;19.50;48.20;;;;;;4138545;28;20044;-85
2022/09/03 08:50:27;;;;;;;2.42;0.50;;;19.60;47.40;;;;;;4136201;28;20026;-87
2022/09/03 08:52:36;;;;;;;4.32;0.63;;;19.60;47.50;;;;;;4145926;28;20021;-87
2022/09/03 08:54:37;;;;;;;6.00;0.55;;;19.70;47.60;;;;;;4141349;28;20026;-85
2022/09/03 08:56:40;;;;;;;1.42;0.60;;;19.80;47.60;;;;;;4147382;28;20037;-86
2022/09/03 08:58:44;;;;;;;1.52;0.73;;;19.80;47.30;;;;;;4147722;28;20241;-86
2022/09/03 09:01:00;;;;;;;3.72;0.73;;;19.90;45.60;;;;;;4126948;28;20038;-85
2022/09/03 09:03:29;;;;;;;3.78;0.52;;;20.00;45.70;;;;;;4121903;28;20160;-85
2022/09/03 09:05:43;;;;;;;1.40;0.50;;;20.00;46.00;;;;;;4134364;28;20031;-85
2022/09/03 09:08:23;;;;;;;3.13;0.40;;;20.10;45.90;;;;;;4149907;28;20033;-85
2022/09/03 09:10:36;;;;;;;7.85;0.70;;;20.20;44.10;;;;;;4139102;28;20069;-86
2022/09/03 09:12:43;;;;;;;;;;;20.20;43.30;;;;;;4142054;28;20030;-85
2022/09/03 09:14:59;;;;;;;1.08;0.40;;;20.30;43.10;;;;;;4140889;28;19913;-86
2022/09/03 09:17:02;;;;;;;2.55;0.90;;;20.20;41.10;;;;;;4141383;28;20043;-86
2022/09/03 09:19:37;;;;;;;3.58;0.40;;;20.20;40.90;;;;;;4136473;28;20022;-86
2022/09/03 09:21:55;;;;;;;0.70;0.35;;;20.30;41.60;;;;;;4134960;28;20538;-86
2022/09/03 09:24:02;;;;;;;3.30;0.52;;;20.30;41.80;;;;;;4135908;28;20034;-85
2022/09/03 09:26:11;;;;;;;4.25;0.35;;;20.40;41.50;;;;;;4138444;28;20029;-84
2022/09/03 09:28:23;;;;;;;3.20;0.65;;;20.50;41.20;;;;;;4132297;28;20087;-86
2022/09/03 09:30:24;;;;;;;0.70;0.40;;;20.50;41.40;;;;;;4138892;28;20034;-86
2022/09/03 09:32:25;;;;;;;5.38;0.40;;;20.50;41.30;;;;;;4130152;28;20348;-85
2022/09/03 09:34:26;;;;;;;7.50;0.40;;;20.60;40.90;;;;;;4132443;28;20045;-88
2022/09/03 09:36:27;;;;;;;2.17;0.60;;;20.60;39.20;;;;;;4126757;28;20018;-86
2022/09/03 09:38:30;;;;;;;4.35;0.65;;;20.70;40.10;;;;;;4137947;28;20072;-86
2022/09/03 09:40:32;;;;;;;3.85;1.00;;;20.80;39.20;;;;;;4132136;28;20375;-86
2022/09/03 09:42:33;;;;;;;1.40;0.50;;;20.80;40.10;;;;;;4133954;28;20045;-86
2022/09/03 09:44:42;;;;;;;4.40;0.60;;;20.90;41.10;;;;;;4139008;28;20052;-86
2022/09/03 09:46:43;;;;;;;5.20;0.57;;;20.90;40.20;;;;;;4138245;28;20047;-86
2022/09/03 09:48:53;;;;;;;3.97;0.73;;;20.80;40.10;;;;;;4131500;28;20061;-86
2022/09/03 09:51:20;;;;;;;3.58;0.70;;;20.80;43.00;;;;;;4135933;28;20440;-86
2022/09/03 09:53:21;;;;;;;3.88;0.73;;;20.70;43.40;;;;;;4150409;28;20368;-85
2022/09/03 09:55:22;;;;;;;1.05;0.40;;;20.60;46.30;;;;;;4138325;28;20397;-87
2022/09/03 09:57:24;;;;;;;6.78;0.70;;;20.60;46.00;;;;;;4138135;28;20038;-86
2022/09/03 09:59:25;;;;;;;10.10;1.08;;;20.60;46.30;;;;;;4139654;28;20347;-86
2022/09/03 10:01:29;;;;;;;3.35;1.10;;;20.50;47.20;;;;;;4138551;28;20037;-86
2022/09/03 10:03:36;;;;;;;5.97;1.15;;;20.50;47.90;;;;;;4134538;28;20417;-85
2022/09/03 10:05:39;;;;;;;3.47;0.80;;;20.40;48.40;;;;;;4131140;28;20038;-86
2022/09/03 10:07:40;;;;;;;4.10;0.75;;;20.30;48.90;;;;;;4132469;28;21192;-85
2022/09/03 10:09:40;;;;;;;6.22;0.77;;;20.20;49.00;;;;;;4133618;28;20026;-85
2022/09/03 10:11:57;;;;;;;2.95;0.77;;;20.20;48.40;;;;;;4135971;28;20030;-87
2022/09/03 10:14:00;;;;;;;10.23;1.08;;;20.10;48.50;;;;;;4142148;28;20413;-85
2022/09/03 10:16:07;;;;;;;5.55;0.60;;;20.10;48.90;;;;;;4138458;28;20576;-86
2022/09/03 10:18:26;;;;;;;4.93;0.95;;;20.10;48.70;;;;;;4144027;28;20085;-85
2022/09/03 10:20:36;;;;;;;3.15;0.60;;;20.20;48.00;;;;;;4143143;28;20091;-85
2022/09/03 10:22:43;;;;;;;2.33;0.70;;;20.10;48.10;;;;;;4140224;28;20030;-86
2022/09/03 10:24:57;;;;;;;4.25;0.75;;;20.20;48.20;;;;;;4140671;28;20845;-86
2022/09/03 10:26:58;;;;;;;4.20;0.65;;;20.20;46.80;;;;;;4155372;28;20022;-85
2022/09/03 10:29:01;;;;;;;1.30;0.45;;;20.10;44.50;;;;;;4152839;28;20049;-85
2022/09/03 10:31:16;;;;;;;6.40;0.60;;;20.10;44.70;;;;;;4157001;28;20026;-86
2022/09/03 10:33:40;;;;;;;3.13;0.65;;;20.20;44.80;;;;;;4154972;28;20037;-86
2022/09/03 10:35:59;;;;;;;2.15;0.52;;;20.20;43.20;;;;;;4168723;28;20030;-85
2022/09/03 10:38:28;;;;;;;0.52;0.30;;;20.20;42.80;;;;;;4155537;28;20398;-86
2022/09/03 10:40:36;;;;;;;2.30;0.57;;;20.30;42.30;;;;;;4138026;28;20030;-86
2022/09/03 10:42:59;;;;;;;4.93;0.55;;;20.30;42.60;;;;;;4164800;28;20029;-86
2022/09/03 10:45:27;;;;;;;6.00;0.57;;;20.40;43.20;;;;;;4144503;28;20544;-87
2022/09/03 10:47:48;;;;;;;6.45;0.60;;;20.40;43.10;;;;;;4154034;28;20034;-85
2022/09/03 10:50:03;;;;;;;1.95;0.50;;;20.40;42.30;;;;;;4137668;28;20030;-85
2022/09/03 10:52:43;;;;;;;0.80;0.35;;;20.30;40.50;;;;;;4136200;28;20026;-86
2022/09/03 10:54:48;;;;;;;7.72;0.70;;;20.40;40.90;;;;;;4140780;28;20026;-87
2022/09/03 10:56:49;;;;;;;5.80;0.68;;;20.50;40.60;;;;;;4143941;28;20600;-86
2022/09/03 10:58:58;;;;;;;1.80;0.50;;;20.30;40.60;;;;;;4135946;28;20122;-87
2022/09/03 11:01:08;;;;;;;2.55;0.40;;;20.50;40.60;;;;;;4126214;28;20300;-86
2022/09/03 11:03:25;;;;;;;14.75;0.75;;;20.50;41.00;;;;;;4148249;28;20029;-86
2022/09/03 11:05:38;;;;;;;5.88;0.50;;;20.50;41.00;;;;;;4150827;28;20025;-86
2022/09/03 11:07:50;;;;;;;6.28;0.40;;;20.40;39.20;;;;;;4141059;28;20528;-86
2022/09/03 11:10:23;;;;;;;11.15;0.60;;;20.30;39.20;;;;;;4135195;28;20402;-86